sensor_id;sensor_type;location;lat;lon;timestamp;P1;durP1;ratioP1;P2;durP2;ratioP2
19396;SDS011;9834;48.076;11.878;2023-02-16T00:01:22;15.83;;;9.00;;
19396;SDS011;9834;48.076;11.878;2023-02-16T00:03:51;17.17;;;8.90;;
19396;SDS011;9834;48.076;11.878;2023-02-16T00:06:21;17.60;;;8.47;;
19396;SDS011;9834;48.076;11.878;2023-02-16T00:08:50;14.03;;;9.07;;
19396;SDS011;9834;48.076;11.878;2023-02-16T00:11:19;18.97;;;9.37;;
19396;SDS011;9834;48.076;11.878;2023-02-16T00:14:07;15.00;;;8.43;;
19396;SDS011;9834;48.076;11.878;2023-02-16T00:16:36;15.53;;;8.90;;
19396;SDS011;9834;48.076;11.878;2023-02-16T00:19:17;13.87;;;8.40;;
19396;SDS011;9834;48.076;11.878;2023-02-16T00:21:47;12.87;;;9.23;;
19396;SDS011;9834;48.076;11.878;2023-02-16T00:24:16;14.33;;;9.13;;
19396;SDS011;9834;48.076;11.878;2023-02-16T00:26:44;15.60;;;9.33;;
19396;SDS011;9834;48.076;11.878;2023-02-16T00:29:14;13.13;;;8.47;;
19396;SDS011;9834;48.076;11.878;2023-02-16T00:31:45;15.63;;;9.57;;
19396;SDS011;9834;48.076;11.878;2023-02-16T00:34:24;15.67;;;10.27;;
19396;SDS011;9834;48.076;11.878;2023-02-16T00:36:56;15.43;;;9.00;;
19396;SDS011;9834;48.076;11.878;2023-02-16T00:39:24;17.60;;;10.73;;
19396;SDS011;9834;48.076;11.878;2023-02-16T00:41:55;19.73;;;10.27;;
19396;SDS011;9834;48.076;11.878;2023-02-16T00:44:28;14.87;;;9.43;;
19396;SDS011;9834;48.076;11.878;2023-02-16T00:46:59;15.90;;;9.43;;
19396;SDS011;9834;48.076;11.878;2023-02-16T00:49:29;13.87;;;8.73;;
19396;SDS011;9834;48.076;11.878;2023-02-16T00:51:58;14.47;;;9.13;;
19396;SDS011;9834;48.076;11.878;2023-02-16T00:54:25;15.77;;;9.17;;
19396;SDS011;9834;48.076;11.878;2023-02-16T00:56:52;13.63;;;7.23;;
19396;SDS011;9834;48.076;11.878;2023-02-16T00:59:20;16.17;;;9.70;;
19396;SDS011;9834;48.076;11.878;2023-02-16T01:01:49;13.20;;;8.17;;
19396;SDS011;9834;48.076;11.878;2023-02-16T01:04:17;13.17;;;8.70;;
19396;SDS011;9834;48.076;11.878;2023-02-16T01:06:47;15.60;;;8.57;;
19396;SDS011;9834;48.076;11.878;2023-02-16T01:09:33;12.57;;;8.33;;
19396;SDS011;9834;48.076;11.878;2023-02-16T01:12:18;15.93;;;9.00;;
19396;SDS011;9834;48.076;11.878;2023-02-16T01:14:49;14.07;;;9.17;;
19396;SDS011;9834;48.076;11.878;2023-02-16T01:17:18;14.07;;;9.07;;
19396;SDS011;9834;48.076;11.878;2023-02-16T01:19:46;15.70;;;9.87;;
19396;SDS011;9834;48.076;11.878;2023-02-16T01:22:13;17.83;;;10.77;;
19396;SDS011;9834;48.076;11.878;2023-02-16T01:24:42;13.70;;;8.53;;
19396;SDS011;9834;48.076;11.878;2023-02-16T01:27:10;17.07;;;9.50;;
19396;SDS011;9834;48.076;11.878;2023-02-16T01:29:39;15.53;;;8.97;;
19396;SDS011;9834;48.076;11.878;2023-02-16T01:32:08;15.67;;;9.23;;
19396;SDS011;9834;48.076;11.878;2023-02-16T01:34:36;13.97;;;9.40;;
19396;SDS011;9834;48.076;11.878;2023-02-16T01:37:04;12.83;;;8.30;;
19396;SDS011;9834;48.076;11.878;2023-02-16T01:39:31;15.87;;;9.30;;
19396;SDS011;9834;48.076;11.878;2023-02-16T01:42:05;16.73;;;10.80;;
19396;SDS011;9834;48.076;11.878;2023-02-16T01:44:40;17.30;;;9.50;;
19396;SDS011;9834;48.076;11.878;2023-02-16T01:47:14;17.97;;;11.13;;
19396;SDS011;9834;48.076;11.878;2023-02-16T01:49:54;13.90;;;9.37;;
19396;SDS011;9834;48.076;11.878;2023-02-16T01:52:24;16.17;;;10.37;;
19396;SDS011;9834;48.076;11.878;2023-02-16T01:54:57;16.73;;;10.30;;
19396;SDS011;9834;48.076;11.878;2023-02-16T01:57:35;14.30;;;8.60;;
19396;SDS011;9834;48.076;11.878;2023-02-16T02:00:12;16.83;;;10.50;;
19396;SDS011;9834;48.076;11.878;2023-02-16T02:02:42;14.43;;;8.60;;
19396;SDS011;9834;48.076;11.878;2023-02-16T02:05:18;15.63;;;9.63;;
19396;SDS011;9834;48.076;11.878;2023-02-16T02:08:02;16.90;;;9.80;;
19396;SDS011;9834;48.076;11.878;2023-02-16T02:10:40;14.23;;;8.13;;
19396;SDS011;9834;48.076;11.878;2023-02-16T02:13:18;13.30;;;8.67;;
19396;SDS011;9834;48.076;11.878;2023-02-16T02:15:52;17.07;;;8.93;;
19396;SDS011;9834;48.076;11.878;2023-02-16T02:18:19;19.57;;;10.63;;
19396;SDS011;9834;48.076;11.878;2023-02-16T02:20:50;21.20;;;11.60;;
19396;SDS011;9834;48.076;11.878;2023-02-16T02:27:08;17.10;;;8.93;;
19396;SDS011;9834;48.076;11.878;2023-02-16T02:29:55;15.83;;;9.07;;
19396;SDS011;9834;48.076;11.878;2023-02-16T02:32:47;13.47;;;7.30;;
19396;SDS011;9834;48.076;11.878;2023-02-16T02:35:25;8.97;;;5.93;;
19396;SDS011;9834;48.076;11.878;2023-02-16T02:38:02;8.87;;;5.33;;
19396;SDS011;9834;48.076;11.878;2023-02-16T02:40:38;12.10;;;5.33;;
19396;SDS011;9834;48.076;11.878;2023-02-16T02:43:18;12.63;;;5.13;;
19396;SDS011;9834;48.076;11.878;2023-02-16T02:45:49;6.30;;;4.60;;
19396;SDS011;9834;48.076;11.878;2023-02-16T02:48:20;7.80;;;5.00;;
19396;SDS011;9834;48.076;11.878;2023-02-16T02:50:49;8.17;;;5.07;;
19396;SDS011;9834;48.076;11.878;2023-02-16T02:53:37;7.20;;;5.30;;
19396;SDS011;9834;48.076;11.878;2023-02-16T02:56:09;7.93;;;5.80;;
19396;SDS011;9834;48.076;11.878;2023-02-16T02:59:00;10.57;;;5.03;;
19396;SDS011;9834;48.076;11.878;2023-02-16T03:01:50;10.07;;;5.43;;
19396;SDS011;9834;48.076;11.878;2023-02-16T03:04:21;10.30;;;5.17;;
19396;SDS011;9834;48.076;11.878;2023-02-16T03:06:52;7.10;;;4.80;;
19396;SDS011;9834;48.076;11.878;2023-02-16T03:09:22;5.53;;;4.33;;
19396;SDS011;9834;48.076;11.878;2023-02-16T03:11:51;6.87;;;5.27;;
19396;SDS011;9834;48.076;11.878;2023-02-16T03:14:40;5.47;;;4.33;;
19396;SDS011;9834;48.076;11.878;2023-02-16T03:17:12;9.10;;;5.13;;
19396;SDS011;9834;48.076;11.878;2023-02-16T03:19:59;7.73;;;5.33;;
19396;SDS011;9834;48.076;11.878;2023-02-16T03:22:47;10.50;;;5.70;;
19396;SDS011;9834;48.076;11.878;2023-02-16T03:25:33;8.07;;;6.43;;
19396;SDS011;9834;48.076;11.878;2023-02-16T03:28:21;7.53;;;4.67;;
19396;SDS011;9834;48.076;11.878;2023-02-16T03:31:12;11.30;;;6.10;;
19396;SDS011;9834;48.076;11.878;2023-02-16T03:33:42;8.00;;;6.07;;
19396;SDS011;9834;48.076;11.878;2023-02-16T03:36:10;11.13;;;6.60;;
19396;SDS011;9834;48.076;11.878;2023-02-16T03:38:38;13.40;;;6.63;;
19396;SDS011;9834;48.076;11.878;2023-02-16T03:41:05;12.50;;;5.80;;
19396;SDS011;9834;48.076;11.878;2023-02-16T03:43:33;7.87;;;5.47;;
19396;SDS011;9834;48.076;11.878;2023-02-16T03:46:00;11.73;;;6.17;;
19396;SDS011;9834;48.076;11.878;2023-02-16T03:48:29;9.43;;;5.80;;
19396;SDS011;9834;48.076;11.878;2023-02-16T03:50:56;6.90;;;4.90;;
19396;SDS011;9834;48.076;11.878;2023-02-16T03:53:24;7.23;;;5.10;;
19396;SDS011;9834;48.076;11.878;2023-02-16T03:55:51;10.67;;;4.73;;
19396;SDS011;9834;48.076;11.878;2023-02-16T03:58:20;7.10;;;5.10;;
19396;SDS011;9834;48.076;11.878;2023-02-16T04:00:53;7.63;;;4.93;;
19396;SDS011;9834;48.076;11.878;2023-02-16T04:03:23;7.83;;;5.07;;
19396;SDS011;9834;48.076;11.878;2023-02-16T04:05:52;6.90;;;4.83;;
19396;SDS011;9834;48.076;11.878;2023-02-16T04:08:20;8.60;;;5.33;;
19396;SDS011;9834;48.076;11.878;2023-02-16T04:10:48;6.23;;;4.93;;
19396;SDS011;9834;48.076;11.878;2023-02-16T04:13:15;7.93;;;4.67;;
19396;SDS011;9834;48.076;11.878;2023-02-16T04:15:42;8.00;;;4.57;;
19396;SDS011;9834;48.076;11.878;2023-02-16T04:18:09;6.90;;;5.10;;
19396;SDS011;9834;48.076;11.878;2023-02-16T04:20:37;6.60;;;4.70;;
19396;SDS011;9834;48.076;11.878;2023-02-16T04:23:06;7.07;;;4.47;;
19396;SDS011;9834;48.076;11.878;2023-02-16T04:25:33;9.70;;;4.30;;
19396;SDS011;9834;48.076;11.878;2023-02-16T04:28:01;6.23;;;4.37;;
19396;SDS011;9834;48.076;11.878;2023-02-16T04:30:29;8.67;;;4.87;;
19396;SDS011;9834;48.076;11.878;2023-02-16T04:32:56;9.03;;;5.37;;
19396;SDS011;9834;48.076;11.878;2023-02-16T04:35:24;6.50;;;4.47;;
19396;SDS011;9834;48.076;11.878;2023-02-16T04:37:52;7.97;;;4.80;;
19396;SDS011;9834;48.076;11.878;2023-02-16T04:40:21;5.97;;;3.93;;
19396;SDS011;9834;48.076;11.878;2023-02-16T04:42:48;5.33;;;4.03;;
19396;SDS011;9834;48.076;11.878;2023-02-16T04:45:15;7.03;;;4.67;;
19396;SDS011;9834;48.076;11.878;2023-02-16T04:47:42;5.30;;;3.60;;
19396;SDS011;9834;48.076;11.878;2023-02-16T04:50:10;5.40;;;3.77;;
19396;SDS011;9834;48.076;11.878;2023-02-16T04:52:38;6.17;;;3.50;;
19396;SDS011;9834;48.076;11.878;2023-02-16T04:55:06;7.10;;;4.77;;
19396;SDS011;9834;48.076;11.878;2023-02-16T04:57:36;6.03;;;4.00;;
19396;SDS011;9834;48.076;11.878;2023-02-16T05:00:04;5.40;;;3.60;;
19396;SDS011;9834;48.076;11.878;2023-02-16T05:02:32;5.33;;;3.50;;
19396;SDS011;9834;48.076;11.878;2023-02-16T05:05:00;5.60;;;3.60;;
19396;SDS011;9834;48.076;11.878;2023-02-16T05:07:27;4.67;;;3.70;;
19396;SDS011;9834;48.076;11.878;2023-02-16T05:09:55;4.47;;;3.23;;
19396;SDS011;9834;48.076;11.878;2023-02-16T05:12:22;5.43;;;3.43;;
19396;SDS011;9834;48.076;11.878;2023-02-16T05:15:17;3.93;;;2.83;;
19396;SDS011;9834;48.076;11.878;2023-02-16T05:17:44;6.50;;;3.60;;
19396;SDS011;9834;48.076;11.878;2023-02-16T05:20:12;6.20;;;3.47;;
19396;SDS011;9834;48.076;11.878;2023-02-16T05:22:39;9.87;;;3.73;;
19396;SDS011;9834;48.076;11.878;2023-02-16T05:25:08;5.67;;;4.00;;
19396;SDS011;9834;48.076;11.878;2023-02-16T05:27:35;5.67;;;3.87;;
19396;SDS011;9834;48.076;11.878;2023-02-16T05:30:02;4.67;;;3.70;;
19396;SDS011;9834;48.076;11.878;2023-02-16T05:32:32;5.07;;;2.90;;
19396;SDS011;9834;48.076;11.878;2023-02-16T05:34:59;5.23;;;3.63;;
19396;SDS011;9834;48.076;11.878;2023-02-16T05:37:26;5.73;;;3.37;;
19396;SDS011;9834;48.076;11.878;2023-02-16T05:39:54;5.90;;;2.90;;
19396;SDS011;9834;48.076;11.878;2023-02-16T05:42:21;5.17;;;3.63;;
19396;SDS011;9834;48.076;11.878;2023-02-16T05:44:49;8.83;;;3.50;;
19396;SDS011;9834;48.076;11.878;2023-02-16T05:47:16;6.93;;;3.97;;
19396;SDS011;9834;48.076;11.878;2023-02-16T05:49:45;5.70;;;4.10;;
19396;SDS011;9834;48.076;11.878;2023-02-16T05:52:13;4.20;;;3.30;;
19396;SDS011;9834;48.076;11.878;2023-02-16T05:54:40;5.60;;;3.37;;
19396;SDS011;9834;48.076;11.878;2023-02-16T05:57:08;4.20;;;2.83;;
19396;SDS011;9834;48.076;11.878;2023-02-16T05:59:36;7.17;;;4.10;;
19396;SDS011;9834;48.076;11.878;2023-02-16T06:02:03;4.63;;;3.30;;
19396;SDS011;9834;48.076;11.878;2023-02-16T06:04:30;4.30;;;3.13;;
19396;SDS011;9834;48.076;11.878;2023-02-16T06:06:59;5.67;;;3.80;;
19396;SDS011;9834;48.076;11.878;2023-02-16T06:09:27;4.20;;;3.03;;
19396;SDS011;9834;48.076;11.878;2023-02-16T06:11:55;5.47;;;3.40;;
19396;SDS011;9834;48.076;11.878;2023-02-16T06:14:22;5.33;;;3.60;;
19396;SDS011;9834;48.076;11.878;2023-02-16T06:16:50;4.37;;;2.83;;
19396;SDS011;9834;48.076;11.878;2023-02-16T06:19:18;4.80;;;3.03;;
19396;SDS011;9834;48.076;11.878;2023-02-16T06:21:46;3.63;;;2.93;;
19396;SDS011;9834;48.076;11.878;2023-02-16T06:24:15;4.30;;;2.97;;
19396;SDS011;9834;48.076;11.878;2023-02-16T06:26:42;6.73;;;2.80;;
19396;SDS011;9834;48.076;11.878;2023-02-16T06:29:10;6.93;;;2.60;;
19396;SDS011;9834;48.076;11.878;2023-02-16T06:31:37;5.67;;;3.10;;
19396;SDS011;9834;48.076;11.878;2023-02-16T06:34:04;4.63;;;2.90;;
19396;SDS011;9834;48.076;11.878;2023-02-16T06:36:32;4.83;;;3.00;;
19396;SDS011;9834;48.076;11.878;2023-02-16T06:39:00;4.93;;;2.97;;
19396;SDS011;9834;48.076;11.878;2023-02-16T06:41:29;4.37;;;2.40;;
19396;SDS011;9834;48.076;11.878;2023-02-16T06:44:00;4.60;;;3.23;;
19396;SDS011;9834;48.076;11.878;2023-02-16T06:46:28;5.43;;;3.37;;
19396;SDS011;9834;48.076;11.878;2023-02-16T06:48:56;6.03;;;3.17;;
19396;SDS011;9834;48.076;11.878;2023-02-16T06:51:24;4.07;;;2.77;;
19396;SDS011;9834;48.076;11.878;2023-02-16T06:53:52;5.87;;;2.97;;
19396;SDS011;9834;48.076;11.878;2023-02-16T06:56:19;5.00;;;3.23;;
19396;SDS011;9834;48.076;11.878;2023-02-16T06:58:49;3.63;;;2.67;;
19396;SDS011;9834;48.076;11.878;2023-02-16T07:01:16;7.40;;;3.90;;
19396;SDS011;9834;48.076;11.878;2023-02-16T07:03:47;4.87;;;3.33;;
19396;SDS011;9834;48.076;11.878;2023-02-16T07:06:16;5.23;;;2.93;;
19396;SDS011;9834;48.076;11.878;2023-02-16T07:08:43;4.13;;;3.20;;
19396;SDS011;9834;48.076;11.878;2023-02-16T07:11:11;5.80;;;3.70;;
19396;SDS011;9834;48.076;11.878;2023-02-16T07:13:39;5.90;;;3.53;;
19396;SDS011;9834;48.076;11.878;2023-02-16T07:16:08;5.93;;;3.83;;
19396;SDS011;9834;48.076;11.878;2023-02-16T07:18:35;3.60;;;3.27;;
19396;SDS011;9834;48.076;11.878;2023-02-16T07:21:03;7.67;;;3.63;;
19396;SDS011;9834;48.076;11.878;2023-02-16T07:23:31;6.20;;;3.57;;
19396;SDS011;9834;48.076;11.878;2023-02-16T07:25:58;6.13;;;4.10;;
19396;SDS011;9834;48.076;11.878;2023-02-16T07:28:25;5.93;;;3.50;;
19396;SDS011;9834;48.076;11.878;2023-02-16T07:30:53;4.57;;;3.23;;
19396;SDS011;9834;48.076;11.878;2023-02-16T07:33:22;3.67;;;3.10;;
19396;SDS011;9834;48.076;11.878;2023-02-16T07:35:49;11.37;;;4.47;;
19396;SDS011;9834;48.076;11.878;2023-02-16T07:38:17;5.73;;;4.27;;
19396;SDS011;9834;48.076;11.878;2023-02-16T07:40:44;4.43;;;3.83;;
19396;SDS011;9834;48.076;11.878;2023-02-16T07:43:12;9.00;;;4.70;;
19396;SDS011;9834;48.076;11.878;2023-02-16T07:45:39;12.93;;;6.30;;
19396;SDS011;9834;48.076;11.878;2023-02-16T07:48:06;10.67;;;6.73;;
19396;SDS011;9834;48.076;11.878;2023-02-16T07:50:34;15.73;;;11.23;;
19396;SDS011;9834;48.076;11.878;2023-02-16T07:53:02;14.47;;;10.10;;
19396;SDS011;9834;48.076;11.878;2023-02-16T07:55:29;13.93;;;9.50;;
19396;SDS011;9834;48.076;11.878;2023-02-16T07:57:56;16.33;;;9.83;;
19396;SDS011;9834;48.076;11.878;2023-02-16T08:00:24;13.87;;;9.63;;
19396;SDS011;9834;48.076;11.878;2023-02-16T08:02:52;12.33;;;8.07;;
19396;SDS011;9834;48.076;11.878;2023-02-16T08:05:19;11.23;;;7.97;;
19396;SDS011;9834;48.076;11.878;2023-02-16T08:07:48;8.97;;;6.67;;
19396;SDS011;9834;48.076;11.878;2023-02-16T08:10:15;8.80;;;6.80;;
19396;SDS011;9834;48.076;11.878;2023-02-16T08:12:43;10.67;;;6.80;;
19396;SDS011;9834;48.076;11.878;2023-02-16T08:15:10;7.83;;;6.63;;
19396;SDS011;9834;48.076;11.878;2023-02-16T08:17:37;10.53;;;6.63;;
19396;SDS011;9834;48.076;11.878;2023-02-16T08:20:05;9.00;;;6.30;;
19396;SDS011;9834;48.076;11.878;2023-02-16T08:22:33;10.97;;;6.47;;
19396;SDS011;9834;48.076;11.878;2023-02-16T08:25:02;8.60;;;6.10;;
19396;SDS011;9834;48.076;11.878;2023-02-16T08:27:30;12.00;;;5.90;;
19396;SDS011;9834;48.076;11.878;2023-02-16T08:29:57;8.60;;;6.60;;
19396;SDS011;9834;48.076;11.878;2023-02-16T08:32:25;9.70;;;6.87;;
19396;SDS011;9834;48.076;11.878;2023-02-16T08:34:52;10.53;;;6.53;;
19396;SDS011;9834;48.076;11.878;2023-02-16T08:37:20;12.00;;;7.77;;
19396;SDS011;9834;48.076;11.878;2023-02-16T08:39:47;21.47;;;10.20;;
19396;SDS011;9834;48.076;11.878;2023-02-16T08:42:15;14.20;;;10.30;;
19396;SDS011;9834;48.076;11.878;2023-02-16T08:44:43;15.00;;;8.83;;
19396;SDS011;9834;48.076;11.878;2023-02-16T08:47:11;11.50;;;8.00;;
19396;SDS011;9834;48.076;11.878;2023-02-16T08:49:40;19.17;;;8.43;;
19396;SDS011;9834;48.076;11.878;2023-02-16T08:52:08;15.30;;;7.60;;
19396;SDS011;9834;48.076;11.878;2023-02-16T08:54:36;9.83;;;6.93;;
19396;SDS011;9834;48.076;11.878;2023-02-16T08:57:04;9.90;;;5.77;;
19396;SDS011;9834;48.076;11.878;2023-02-16T08:59:33;11.10;;;6.13;;
19396;SDS011;9834;48.076;11.878;2023-02-16T09:02:01;8.27;;;6.17;;
19396;SDS011;9834;48.076;11.878;2023-02-16T09:04:28;9.93;;;5.83;;
19396;SDS011;9834;48.076;11.878;2023-02-16T09:06:56;11.50;;;6.17;;
19396;SDS011;9834;48.076;11.878;2023-02-16T09:09:24;9.00;;;5.00;;
19396;SDS011;9834;48.076;11.878;2023-02-16T09:11:52;9.50;;;5.47;;
19396;SDS011;9834;48.076;11.878;2023-02-16T09:14:21;4.47;;;4.00;;
19396;SDS011;9834;48.076;11.878;2023-02-16T09:16:50;5.47;;;3.73;;
19396;SDS011;9834;48.076;11.878;2023-02-16T09:19:18;9.60;;;4.43;;
19396;SDS011;9834;48.076;11.878;2023-02-16T09:21:46;4.00;;;3.20;;
19396;SDS011;9834;48.076;11.878;2023-02-16T09:24:16;4.33;;;3.17;;
19396;SDS011;9834;48.076;11.878;2023-02-16T09:26:44;6.03;;;3.63;;
19396;SDS011;9834;48.076;11.878;2023-02-16T09:29:12;7.67;;;3.83;;
19396;SDS011;9834;48.076;11.878;2023-02-16T09:31:39;7.70;;;3.10;;
19396;SDS011;9834;48.076;11.878;2023-02-16T09:34:14;5.00;;;3.03;;
19396;SDS011;9834;48.076;11.878;2023-02-16T09:36:43;5.57;;;2.93;;
19396;SDS011;9834;48.076;11.878;2023-02-16T09:39:11;11.20;;;3.43;;
19396;SDS011;9834;48.076;11.878;2023-02-16T09:41:46;5.83;;;4.07;;
19396;SDS011;9834;48.076;11.878;2023-02-16T09:44:24;5.13;;;3.07;;
19396;SDS011;9834;48.076;11.878;2023-02-16T09:47:02;5.57;;;3.50;;
19396;SDS011;9834;48.076;11.878;2023-02-16T09:49:36;5.77;;;3.73;;
19396;SDS011;9834;48.076;11.878;2023-02-16T09:52:08;2.73;;;2.53;;
19396;SDS011;9834;48.076;11.878;2023-02-16T09:54:44;8.20;;;4.47;;
19396;SDS011;9834;48.076;11.878;2023-02-16T09:57:16;4.37;;;2.97;;
19396;SDS011;9834;48.076;11.878;2023-02-16T09:59:50;8.17;;;3.83;;
19396;SDS011;9834;48.076;11.878;2023-02-16T10:02:33;6.87;;;3.60;;
19396;SDS011;9834;48.076;11.878;2023-02-16T10:05:14;3.93;;;3.20;;
19396;SDS011;9834;48.076;11.878;2023-02-16T10:07:53;6.60;;;3.57;;
19396;SDS011;9834;48.076;11.878;2023-02-16T10:10:29;4.63;;;3.00;;
19396;SDS011;9834;48.076;11.878;2023-02-16T10:13:01;6.13;;;3.17;;
19396;SDS011;9834;48.076;11.878;2023-02-16T10:15:33;6.27;;;3.30;;
19396;SDS011;9834;48.076;11.878;2023-02-16T10:18:06;7.13;;;3.33;;
19396;SDS011;9834;48.076;11.878;2023-02-16T10:20:44;3.20;;;2.63;;
19396;SDS011;9834;48.076;11.878;2023-02-16T10:23:17;6.63;;;3.67;;
19396;SDS011;9834;48.076;11.878;2023-02-16T10:25:58;3.87;;;3.10;;
19396;SDS011;9834;48.076;11.878;2023-02-16T10:28:31;4.17;;;2.90;;
19396;SDS011;9834;48.076;11.878;2023-02-16T10:31:10;3.87;;;3.20;;
19396;SDS011;9834;48.076;11.878;2023-02-16T10:33:42;5.10;;;3.70;;
19396;SDS011;9834;48.076;11.878;2023-02-16T10:36:18;5.70;;;3.80;;
19396;SDS011;9834;48.076;11.878;2023-02-16T10:38:53;6.53;;;3.43;;
19396;SDS011;9834;48.076;11.878;2023-02-16T10:41:30;5.87;;;3.50;;
19396;SDS011;9834;48.076;11.878;2023-02-16T10:44:02;7.70;;;3.67;;
19396;SDS011;9834;48.076;11.878;2023-02-16T10:46:38;9.03;;;4.07;;
19396;SDS011;9834;48.076;11.878;2023-02-16T10:49:10;6.43;;;4.00;;
19396;SDS011;9834;48.076;11.878;2023-02-16T10:51:40;6.10;;;4.00;;
19396;SDS011;9834;48.076;11.878;2023-02-16T10:54:13;7.73;;;3.23;;
19396;SDS011;9834;48.076;11.878;2023-02-16T10:56:46;3.67;;;3.03;;
19396;SDS011;9834;48.076;11.878;2023-02-16T10:59:17;5.10;;;4.03;;
19396;SDS011;9834;48.076;11.878;2023-02-16T11:01:47;3.20;;;2.57;;
19396;SDS011;9834;48.076;11.878;2023-02-16T11:04:31;4.33;;;3.50;;
19396;SDS011;9834;48.076;11.878;2023-02-16T11:07:07;6.07;;;3.60;;
19396;SDS011;9834;48.076;11.878;2023-02-16T11:09:36;6.37;;;3.57;;
19396;SDS011;9834;48.076;11.878;2023-02-16T11:14:53;8.87;;;3.40;;
19396;SDS011;9834;48.076;11.878;2023-02-16T11:17:24;4.03;;;2.60;;
19396;SDS011;9834;48.076;11.878;2023-02-16T11:19:52;6.47;;;2.53;;
19396;SDS011;9834;48.076;11.878;2023-02-16T11:22:27;3.77;;;2.90;;
19396;SDS011;9834;48.076;11.878;2023-02-16T11:25:12;3.57;;;2.50;;
19396;SDS011;9834;48.076;11.878;2023-02-16T11:27:52;5.53;;;3.17;;
19396;SDS011;9834;48.076;11.878;2023-02-16T11:30:31;7.43;;;2.87;;
19396;SDS011;9834;48.076;11.878;2023-02-16T11:33:00;3.27;;;2.97;;
19396;SDS011;9834;48.076;11.878;2023-02-16T11:35:30;5.67;;;2.43;;
19396;SDS011;9834;48.076;11.878;2023-02-16T11:38:00;4.07;;;2.50;;
19396;SDS011;9834;48.076;11.878;2023-02-16T11:40:28;2.40;;;2.20;;
19396;SDS011;9834;48.076;11.878;2023-02-16T11:42:57;5.73;;;2.73;;
19396;SDS011;9834;48.076;11.878;2023-02-16T11:45:28;2.57;;;2.40;;
19396;SDS011;9834;48.076;11.878;2023-02-16T11:47:57;4.33;;;2.50;;
19396;SDS011;9834;48.076;11.878;2023-02-16T11:50:27;10.23;;;2.30;;
19396;SDS011;9834;48.076;11.878;2023-02-16T11:52:56;3.00;;;2.00;;
19396;SDS011;9834;48.076;11.878;2023-02-16T11:55:41;6.93;;;3.17;;
19396;SDS011;9834;48.076;11.878;2023-02-16T11:58:14;5.00;;;2.70;;
19396;SDS011;9834;48.076;11.878;2023-02-16T12:00:46;3.87;;;2.27;;
19396;SDS011;9834;48.076;11.878;2023-02-16T12:03:28;6.93;;;3.47;;
19396;SDS011;9834;48.076;11.878;2023-02-16T12:06:19;10.07;;;2.83;;
19396;SDS011;9834;48.076;11.878;2023-02-16T12:09:02;3.00;;;2.40;;
19396;SDS011;9834;48.076;11.878;2023-02-16T12:11:42;3.43;;;2.30;;
19396;SDS011;9834;48.076;11.878;2023-02-16T12:14:23;2.60;;;2.37;;
19396;SDS011;9834;48.076;11.878;2023-02-16T12:17:11;2.83;;;2.63;;
19396;SDS011;9834;48.076;11.878;2023-02-16T12:19:59;5.20;;;2.93;;
19396;SDS011;9834;48.076;11.878;2023-02-16T12:22:32;6.57;;;4.27;;
19396;SDS011;9834;48.076;11.878;2023-02-16T12:25:11;4.37;;;3.27;;
19396;SDS011;9834;48.076;11.878;2023-02-16T12:27:51;4.73;;;3.37;;
19396;SDS011;9834;48.076;11.878;2023-02-16T12:30:27;4.43;;;3.13;;
19396;SDS011;9834;48.076;11.878;2023-02-16T12:33:15;4.87;;;2.83;;
19396;SDS011;9834;48.076;11.878;2023-02-16T12:36:03;6.37;;;3.27;;
19396;SDS011;9834;48.076;11.878;2023-02-16T12:38:50;3.60;;;2.97;;
19396;SDS011;9834;48.076;11.878;2023-02-16T12:41:29;3.70;;;3.27;;
19396;SDS011;9834;48.076;11.878;2023-02-16T12:44:04;3.70;;;2.87;;
19396;SDS011;9834;48.076;11.878;2023-02-16T12:46:38;4.07;;;2.40;;
19396;SDS011;9834;48.076;11.878;2023-02-16T12:49:11;3.27;;;2.57;;
19396;SDS011;9834;48.076;11.878;2023-02-16T12:51:42;5.10;;;3.07;;
19396;SDS011;9834;48.076;11.878;2023-02-16T12:54:15;3.13;;;2.83;;
19396;SDS011;9834;48.076;11.878;2023-02-16T12:56:46;4.53;;;3.60;;
19396;SDS011;9834;48.076;11.878;2023-02-16T12:59:22;3.20;;;2.90;;
19396;SDS011;9834;48.076;11.878;2023-02-16T13:01:57;4.63;;;2.77;;
19396;SDS011;9834;48.076;11.878;2023-02-16T13:04:32;2.47;;;2.23;;
19396;SDS011;9834;48.076;11.878;2023-02-16T13:07:06;4.93;;;2.90;;
19396;SDS011;9834;48.076;11.878;2023-02-16T13:09:43;2.63;;;2.40;;
19396;SDS011;9834;48.076;11.878;2023-02-16T13:12:23;2.23;;;1.67;;
19396;SDS011;9834;48.076;11.878;2023-02-16T13:14:59;5.87;;;2.90;;
19396;SDS011;9834;48.076;11.878;2023-02-16T13:17:32;5.43;;;2.73;;
19396;SDS011;9834;48.076;11.878;2023-02-16T13:20:02;2.90;;;2.53;;
19396;SDS011;9834;48.076;11.878;2023-02-16T13:22:55;3.67;;;2.30;;
19396;SDS011;9834;48.076;11.878;2023-02-16T13:25:50;2.07;;;1.97;;
19396;SDS011;9834;48.076;11.878;2023-02-16T13:28:50;3.03;;;2.07;;
19396;SDS011;9834;48.076;11.878;2023-02-16T13:34:23;2.85;;;2.15;;
19396;SDS011;9834;48.076;11.878;2023-02-16T13:37:12;2.92;;;2.60;;
19396;SDS011;9834;48.076;11.878;2023-02-16T13:42:55;2.53;;;1.92;;
19396;SDS011;9834;48.076;11.878;2023-02-16T13:45:48;2.38;;;2.05;;
19396;SDS011;9834;48.076;11.878;2023-02-16T13:48:22;2.20;;;1.95;;
19396;SDS011;9834;48.076;11.878;2023-02-16T13:50:56;2.15;;;1.92;;
19396;SDS011;9834;48.076;11.878;2023-02-16T13:53:29;5.82;;;2.33;;
19396;SDS011;9834;48.076;11.878;2023-02-16T13:56:17;3.78;;;2.42;;
19396;SDS011;9834;48.076;11.878;2023-02-16T13:58:48;2.15;;;1.90;;
19396;SDS011;9834;48.076;11.878;2023-02-16T14:01:35;2.08;;;1.88;;
19396;SDS011;9834;48.076;11.878;2023-02-16T14:04:11;2.40;;;2.08;;
19396;SDS011;9834;48.076;11.878;2023-02-16T14:09:57;2.13;;;1.92;;
19396;SDS011;9834;48.076;11.878;2023-02-16T14:12:25;4.82;;;2.47;;
19396;SDS011;9834;48.076;11.878;2023-02-16T14:15:00;3.33;;;1.88;;
19396;SDS011;9834;48.076;11.878;2023-02-16T14:17:33;1.95;;;1.85;;
19396;SDS011;9834;48.076;11.878;2023-02-16T14:20:04;3.45;;;2.42;;
19396;SDS011;9834;48.076;11.878;2023-02-16T14:22:51;3.47;;;2.65;;
19396;SDS011;9834;48.076;11.878;2023-02-16T14:31:17;3.22;;;2.55;;
19396;SDS011;9834;48.076;11.878;2023-02-16T14:33:51;1.70;;;1.60;;
19396;SDS011;9834;48.076;11.878;2023-02-16T14:36:27;2.85;;;2.15;;
19396;SDS011;9834;48.076;11.878;2023-02-16T14:38:56;6.75;;;2.72;;
19396;SDS011;9834;48.076;11.878;2023-02-16T14:41:28;4.63;;;3.00;;
19396;SDS011;9834;48.076;11.878;2023-02-16T14:44:08;2.40;;;2.20;;
19396;SDS011;9834;48.076;11.878;2023-02-16T15:35:23;3.05;;;1.98;;
19396;SDS011;9834;48.076;11.878;2023-02-16T15:38:03;2.40;;;1.70;;
19396;SDS011;9834;48.076;11.878;2023-02-16T15:40:36;1.75;;;1.65;;
19396;SDS011;9834;48.076;11.878;2023-02-16T15:43:08;4.35;;;2.22;;
19396;SDS011;9834;48.076;11.878;2023-02-16T15:45:46;1.50;;;1.40;;
19396;SDS011;9834;48.076;11.878;2023-02-16T15:48:21;3.03;;;1.65;;
19396;SDS011;9834;48.076;11.878;2023-02-16T15:50:54;1.95;;;1.63;;
19396;SDS011;9834;48.076;11.878;2023-02-16T15:53:31;1.57;;;1.30;;
19396;SDS011;9834;48.076;11.878;2023-02-16T15:56:04;1.40;;;1.30;;
19396;SDS011;9834;48.076;11.878;2023-02-16T15:58:46;1.67;;;1.42;;
19396;SDS011;9834;48.076;11.878;2023-02-16T16:01:18;1.70;;;1.60;;
19396;SDS011;9834;48.076;11.878;2023-02-16T16:03:47;1.70;;;1.60;;
19396;SDS011;9834;48.076;11.878;2023-02-16T16:06:15;1.97;;;1.83;;
19396;SDS011;9834;48.076;11.878;2023-02-16T16:08:42;1.23;;;1.07;;
19396;SDS011;9834;48.076;11.878;2023-02-16T16:11:12;4.60;;;1.57;;
19396;SDS011;9834;48.076;11.878;2023-02-16T16:13:40;1.75;;;1.40;;
19396;SDS011;9834;48.076;11.878;2023-02-16T16:16:08;2.13;;;1.90;;
19396;SDS011;9834;48.076;11.878;2023-02-16T16:18:40;2.37;;;1.80;;
19396;SDS011;9834;48.076;11.878;2023-02-16T16:21:15;0.87;;;0.87;;
19396;SDS011;9834;48.076;11.878;2023-02-16T16:23:55;2.13;;;1.37;;